createdAt,value
2022-10-11T00:01:39.719Z,6.64
2022-10-11T00:04:26.591Z,6.64
2022-10-11T00:07:13.426Z,6.60
2022-10-11T00:10:01.637Z,6.55
2022-10-11T00:12:48.644Z,6.45
2022-10-11T00:15:35.910Z,6.49
2022-10-11T00:18:23.441Z,6.45
2022-10-11T00:21:12.817Z,6.42
2022-10-11T00:24:00.234Z,6.38
2022-10-11T00:26:48.525Z,6.41
2022-10-11T00:29:35.377Z,6.45
2022-10-11T00:32:22.055Z,6.46
2022-10-11T00:35:09.758Z,6.45
2022-10-11T00:37:57.764Z,6.37
2022-10-11T00:40:44.459Z,6.48
2022-10-11T00:43:33.554Z,6.30
2022-10-11T00:46:30.059Z,6.36
2022-10-11T00:49:23.713Z,6.34
2022-10-11T00:52:18.225Z,6.30
2022-10-11T00:55:08.286Z,6.30
2022-10-11T00:57:56.845Z,6.20
2022-10-11T01:00:45.378Z,6.22
2022-10-11T01:03:33.678Z,6.15
2022-10-11T01:06:20.841Z,6.21
2022-10-11T01:09:07.971Z,6.22
2022-10-11T01:11:57.915Z,6.12
2022-10-11T01:15:09.342Z,6.08
2022-10-11T01:18:04.847Z,6.12
2022-10-11T01:21:00.275Z,6.09
2022-10-11T01:24:09.195Z,6.16
2022-10-11T01:27:39.559Z,6.15
2022-10-11T01:30:29.206Z,6.22
2022-10-11T01:33:32.306Z,6.20
2022-10-11T01:36:27.806Z,6.34
2022-10-11T01:39:20.118Z,6.25
2022-10-11T01:42:10.967Z,6.23
2022-10-11T01:45:00.084Z,6.21
2022-10-11T01:47:48.738Z,6.10
2022-10-11T01:50:41.006Z,6.08
2022-10-11T01:54:00.681Z,6.11
2022-10-11T01:57:15.676Z,6.05
2022-10-11T02:00:10.052Z,6.01
2022-10-11T02:03:13.298Z,5.89
2022-10-11T02:06:06.218Z,5.90
2022-10-11T02:08:57.180Z,5.91
2022-10-11T02:11:46.663Z,5.93
2022-10-11T02:14:38.180Z,5.92
2022-10-11T02:17:32.240Z,6.05
2022-10-11T02:20:24.093Z,6.04
2022-10-11T02:23:14.483Z,6.05
2022-10-11T02:26:04.933Z,5.91
2022-10-11T02:28:57.508Z,5.85
2022-10-11T02:31:46.289Z,5.85
2022-10-11T02:34:36.909Z,5.96
2022-10-11T02:37:33.791Z,5.96
2022-10-11T02:40:24.838Z,5.97
2022-10-11T02:43:17.596Z,5.97
2022-10-11T02:46:07.547Z,5.87
2022-10-11T02:48:55.588Z,5.89
2022-10-11T02:51:42.785Z,5.92
2022-10-11T02:54:30.828Z,5.84
2022-10-11T02:57:17.723Z,5.79
2022-10-11T03:00:06.052Z,5.71
2022-10-11T03:02:52.842Z,5.76
2022-10-11T03:05:41.601Z,5.71
2022-10-11T03:08:28.686Z,5.65
2022-10-11T03:11:16.669Z,5.66
2022-10-11T03:14:03.393Z,5.67
2022-10-11T03:16:51.524Z,5.55
2022-10-11T03:19:38.733Z,5.56
2022-10-11T03:22:25.663Z,5.56
2022-10-11T03:25:12.757Z,5.55
2022-10-11T03:28:02.765Z,5.57
2022-10-11T03:30:49.844Z,5.60
2022-10-11T03:33:36.560Z,5.65
2022-10-11T03:36:23.436Z,5.80
2022-10-11T03:39:10.271Z,5.95
2022-10-11T03:41:57.633Z,5.92
2022-10-11T03:44:45.502Z,5.95
2022-10-11T03:47:32.753Z,5.99
2022-10-11T03:50:19.774Z,5.93
2022-10-11T03:53:07.870Z,5.92
2022-10-11T03:55:55.578Z,5.95
2022-10-11T03:58:42.495Z,5.96
2022-10-11T04:01:30.744Z,5.97
2022-10-11T04:04:17.642Z,6.02
2022-10-11T04:07:04.734Z,5.99
2022-10-11T04:09:52.153Z,5.92
2022-10-11T04:12:39.494Z,5.95
2022-10-11T04:15:26.170Z,5.93
2022-10-11T04:18:14.324Z,6.01
2022-10-11T04:21:01.069Z,6.02
2022-10-11T04:23:48.037Z,5.96
2022-10-11T04:26:35.076Z,5.92
2022-10-11T04:29:22.005Z,5.93
2022-10-11T04:32:08.710Z,5.80
2022-10-11T04:34:57.208Z,5.91
2022-10-11T04:37:43.821Z,5.83
2022-10-11T04:40:30.724Z,5.94
2022-10-11T04:43:18.635Z,5.91
2022-10-11T04:46:06.401Z,5.81
2022-10-11T04:48:53.843Z,5.86
2022-10-11T04:51:41.919Z,5.72
2022-10-11T04:54:28.640Z,5.79
2022-10-11T04:57:15.281Z,5.79
2022-10-11T05:00:02.126Z,5.83
2022-10-11T05:02:49.082Z,5.75
2022-10-11T05:05:36.261Z,5.64
2022-10-11T05:08:24.973Z,5.65
2022-10-11T05:11:16.082Z,5.70
2022-10-11T05:14:03.145Z,5.72
2022-10-11T05:16:49.794Z,5.64
2022-10-11T05:19:36.612Z,5.55
2022-10-11T05:22:23.569Z,5.45
2022-10-11T05:25:11.994Z,5.45
2022-10-11T05:27:59.205Z,5.45
2022-10-11T05:30:45.902Z,5.56
2022-10-11T05:33:33.467Z,5.55
2022-10-11T05:36:20.053Z,5.40
2022-10-11T05:39:07.096Z,5.37
2022-10-11T05:41:55.498Z,5.35
2022-10-11T05:44:42.130Z,5.36
2022-10-11T05:47:28.716Z,5.53
2022-10-11T05:50:17.192Z,5.61
2022-10-11T05:53:05.849Z,5.65
2022-10-11T05:55:52.338Z,5.56
2022-10-11T05:58:40.898Z,5.54
2022-10-11T06:01:30.934Z,5.55
2022-10-11T06:04:19.180Z,5.39
2022-10-11T06:07:05.985Z,5.45
2022-10-11T06:09:52.580Z,5.50
2022-10-11T06:12:39.925Z,5.66
2022-10-11T06:15:28.283Z,5.66
2022-10-11T06:18:15.214Z,5.47
2022-10-11T06:21:02.239Z,5.85
2022-10-11T06:23:49.898Z,6.04
2022-10-11T06:26:36.822Z,6.15
2022-10-11T06:29:24.153Z,6.29
2022-10-11T06:32:13.401Z,6.45
2022-10-11T06:35:00.612Z,6.64
2022-10-11T06:37:47.158Z,6.67
2022-10-11T06:40:34.150Z,6.75
2022-10-11T06:43:21.340Z,6.91
2022-10-11T06:46:08.444Z,6.97
2022-10-11T06:48:57.621Z,7.03
2022-10-11T06:51:44.798Z,7.13
2022-10-11T06:54:31.837Z,7.12
2022-10-11T06:57:18.780Z,7.10
2022-10-11T07:00:10.318Z,7.24
2022-10-11T07:02:59.424Z,7.30
2022-10-11T07:05:47.978Z,7.24
2022-10-11T07:08:35.147Z,7.23
2022-10-11T07:11:23.487Z,7.34
2022-10-11T07:14:11.186Z,7.50
2022-10-11T07:16:58.105Z,7.58
2022-10-11T07:19:44.718Z,7.64
2022-10-11T07:22:32.939Z,7.63
2022-10-11T07:25:19.811Z,7.75
2022-10-11T07:28:06.670Z,7.79
2022-10-11T07:30:53.692Z,7.97
2022-10-11T07:33:41.000Z,8.06
2022-10-11T07:36:28.143Z,8.16
2022-10-11T07:39:16.357Z,8.27
2022-10-11T07:42:02.981Z,8.44
2022-10-11T07:44:49.960Z,8.63
2022-10-11T07:47:36.943Z,8.73
2022-10-11T07:50:24.050Z,8.82
2022-10-11T07:53:11.201Z,8.96
2022-10-11T07:56:03.131Z,9.22
2022-10-11T07:58:52.418Z,9.36
2022-10-11T08:01:39.517Z,9.48
2022-10-11T08:04:26.518Z,9.59
2022-10-11T08:07:13.405Z,9.79
2022-10-11T08:10:00.534Z,9.89
2022-10-11T08:12:49.651Z,9.97
2022-10-11T08:15:36.675Z,10.13
2022-10-11T08:18:23.917Z,10.35
2022-10-11T08:21:11.914Z,10.50
2022-10-11T08:23:59.145Z,10.58
2022-10-11T08:26:45.766Z,10.75
2022-10-11T08:29:34.191Z,10.89
2022-10-11T08:32:20.914Z,11.09
2022-10-11T08:35:08.166Z,11.17
2022-10-11T08:37:55.016Z,11.31
2022-10-11T08:40:47.588Z,11.43
2022-10-11T08:43:43.630Z,11.56
2022-10-11T08:46:35.059Z,11.73
2022-10-11T08:49:25.849Z,11.86
2022-10-11T08:52:16.194Z,11.99
2022-10-11T08:55:05.753Z,12.06
2022-10-11T08:57:55.832Z,12.22
2022-10-11T09:00:43.886Z,12.43
2022-10-11T09:03:43.188Z,12.56
2022-10-11T09:06:41.105Z,12.74
2022-10-11T09:09:45.698Z,12.91
2022-10-11T09:12:45.890Z,13.06
2022-10-11T09:15:23.173Z,13.15
2022-10-11T09:18:09.451Z,13.24
2022-10-11T09:20:52.966Z,13.45
2022-10-11T09:23:41.774Z,13.45
2022-10-11T09:26:15.712Z,13.41
2022-10-11T09:29:00.787Z,13.68
2022-10-11T09:31:29.806Z,13.67
2022-10-11T09:34:02.049Z,13.75
2022-10-11T09:36:37.910Z,13.90
2022-10-11T09:39:15.606Z,14.03
2022-10-11T09:41:50.510Z,14.10
2022-10-11T09:44:24.288Z,14.01
2022-10-11T09:46:55.502Z,14.07
2022-10-11T09:49:28.886Z,14.19
2022-10-11T09:52:01.864Z,14.38
2022-10-11T09:54:41.475Z,14.15
2022-10-11T09:57:21.492Z,14.17
2022-10-11T10:00:01.373Z,14.27
2022-10-11T10:02:46.992Z,14.51
2022-10-11T10:05:21.097Z,14.43
2022-10-11T10:08:23.053Z,14.58
2022-10-11T10:11:05.399Z,14.87
2022-10-11T10:13:44.389Z,14.84
2022-10-11T10:16:25.885Z,14.94
2022-10-11T10:18:56.857Z,14.79
2022-10-11T10:21:29.556Z,14.97
2022-10-11T10:24:03.142Z,15.11
2022-10-11T10:26:32.245Z,15.19
2022-10-11T10:29:05.092Z,15.11
2022-10-11T10:32:09.269Z,15.03
2022-10-11T10:34:31.261Z,15.33
2022-10-11T10:37:04.954Z,15.41
2022-10-11T10:39:42.079Z,15.27
2022-10-11T10:42:16.427Z,15.12
2022-10-11T10:44:46.119Z,15.18
2022-10-11T10:47:22.584Z,14.63
2022-10-11T10:49:59.485Z,14.65
2022-10-11T10:52:53.029Z,15.18
2022-10-11T10:55:30.198Z,15.58
2022-10-11T10:58:07.334Z,15.83
2022-10-11T11:00:41.433Z,16.02
2022-10-11T11:03:18.305Z,16.24
2022-10-11T11:05:52.843Z,15.99
2022-10-11T11:08:31.674Z,15.95
2022-10-11T11:11:08.856Z,16.24
2022-10-11T11:13:46.895Z,16.02
2022-10-11T11:16:21.249Z,16.02
2022-10-11T11:18:58.591Z,16.00
2022-10-11T11:21:42.381Z,15.93
2022-10-11T11:24:19.560Z,16.12
2022-10-11T11:26:57.384Z,15.91
2022-10-11T11:29:41.179Z,16.05
2022-10-11T11:32:18.666Z,15.98
2022-10-11T11:34:51.054Z,16.02
2022-10-11T11:37:26.508Z,16.04
2022-10-11T11:39:58.727Z,15.60
2022-10-11T11:42:35.411Z,15.93
2022-10-11T11:45:07.077Z,15.82
2022-10-11T11:47:39.196Z,15.99
2022-10-11T11:50:22.647Z,16.33
2022-10-11T11:52:55.348Z,16.25
2022-10-11T11:55:32.447Z,16.33
2022-10-11T11:58:17.893Z,16.25
2022-10-11T12:00:54.728Z,16.22
2022-10-11T12:03:26.622Z,16.06
2022-10-11T12:06:18.889Z,16.07
2022-10-11T12:08:49.685Z,16.30
2022-10-11T12:11:22.974Z,16.41
2022-10-11T12:13:54.196Z,16.32
2022-10-11T12:16:24.126Z,16.52
2022-10-11T12:19:00.951Z,16.41
2022-10-11T12:21:33.079Z,16.24
2022-10-11T12:24:10.274Z,16.27
2022-10-11T12:26:46.638Z,16.31
2022-10-11T12:29:44.746Z,16.45
2022-10-11T12:32:49.433Z,16.24
2022-10-11T12:35:51.634Z,15.95
2022-10-11T12:38:23.810Z,15.92
2022-10-11T12:40:54.669Z,16.10
2022-10-11T12:43:32.295Z,16.12
2022-10-11T12:46:33.516Z,15.89
2022-10-11T12:49:17.718Z,15.67
2022-10-11T12:51:53.779Z,16.04
2022-10-11T12:54:37.563Z,15.73
2022-10-11T12:57:32.642Z,15.19
2022-10-11T13:00:18.954Z,14.94
2022-10-11T13:02:49.063Z,14.69
2022-10-11T13:05:24.299Z,14.64
2022-10-11T13:07:53.748Z,14.97
2022-10-11T13:10:27.518Z,15.12
2022-10-11T13:12:59.623Z,14.82
2022-10-11T13:15:29.694Z,14.65
2022-10-11T13:18:01.510Z,14.33
2022-10-11T13:20:37.671Z,14.06
2022-10-11T13:23:23.116Z,14.06
2022-10-11T13:25:52.103Z,14.08
2022-10-11T13:28:21.596Z,14.10
2022-10-11T13:30:52.335Z,14.18
2022-10-11T13:33:26.207Z,14.12
2022-10-11T13:35:58.902Z,14.14
2022-10-11T13:38:30.676Z,14.80
2022-10-11T13:41:01.044Z,15.47
2022-10-11T13:43:31.072Z,15.93
2022-10-11T13:46:01.709Z,16.32
2022-10-11T13:48:32.080Z,17.03
2022-10-11T13:51:10.486Z,16.94
2022-10-11T13:53:38.748Z,16.71
2022-10-11T13:56:09.498Z,16.65
2022-10-11T13:58:45.189Z,16.61
2022-10-11T14:01:22.924Z,16.89
2022-10-11T14:03:56.696Z,17.11
2022-10-11T14:06:39.649Z,17.08
2022-10-11T14:09:15.616Z,17.05
2022-10-11T14:11:43.877Z,17.75
2022-10-11T14:14:45.800Z,17.52
2022-10-11T14:17:17.653Z,16.90
2022-10-11T14:19:47.487Z,17.04
2022-10-11T14:22:18.843Z,16.96
2022-10-11T14:24:49.124Z,16.34
2022-10-11T14:27:21.424Z,16.16
2022-10-11T14:30:20.363Z,15.95
2022-10-11T14:32:38.803Z,15.91
2022-10-11T14:35:07.775Z,15.48
2022-10-11T14:37:41.999Z,15.23
2022-10-11T14:40:14.384Z,15.06
2022-10-11T14:42:42.637Z,14.92
2022-10-11T14:45:11.492Z,14.94
2022-10-11T14:47:42.998Z,14.74
2022-10-11T14:50:28.940Z,14.43
2022-10-11T14:52:59.053Z,14.24
2022-10-11T14:55:27.514Z,14.14
2022-10-11T14:57:56.575Z,14.08
2022-10-11T15:00:26.711Z,14.52
2022-10-11T15:02:55.808Z,14.96
2022-10-11T15:05:29.901Z,14.67
2022-10-11T15:08:03.684Z,14.49
2022-10-11T15:10:36.607Z,14.30
2022-10-11T15:13:05.206Z,14.14
2022-10-11T15:15:36.260Z,14.07
2022-10-11T15:18:06.651Z,14.09
2022-10-11T15:20:37.485Z,14.09
2022-10-11T15:23:10.881Z,14.15
2022-10-11T15:25:42.975Z,14.11
2022-10-11T15:28:21.359Z,14.05
2022-10-11T15:30:49.586Z,13.98
2022-10-11T15:33:17.886Z,13.88
2022-10-11T15:35:46.128Z,13.88
2022-10-11T15:38:18.679Z,13.94
2022-10-11T15:40:48.608Z,13.95
2022-10-11T15:43:22.019Z,13.98
2022-10-11T15:45:53.324Z,13.95
2022-10-11T15:48:23.565Z,14.01
2022-10-11T15:50:52.182Z,14.13
2022-10-11T15:53:24.763Z,14.03
2022-10-11T15:55:54.536Z,13.94
2022-10-11T15:58:24.707Z,13.89
2022-10-11T16:00:55.778Z,13.93
2022-10-11T16:03:26.438Z,13.97
2022-10-11T16:05:55.513Z,13.98
2022-10-11T16:08:25.531Z,14.04
2022-10-11T16:10:54.048Z,14.07
2022-10-11T16:13:22.531Z,14.12
2022-10-11T16:15:51.009Z,14.11
2022-10-11T16:18:22.188Z,14.12
2022-10-11T16:20:52.542Z,14.06
2022-10-11T16:23:21.913Z,14.00
2022-10-11T16:25:59.714Z,13.89
2022-10-11T16:28:29.003Z,13.78
2022-10-11T16:30:57.700Z,13.77
2022-10-11T16:33:26.135Z,13.73
2022-10-11T16:36:14.599Z,13.62
2022-10-11T16:38:42.888Z,13.50
2022-10-11T16:41:12.444Z,13.30
2022-10-11T16:43:40.996Z,13.11
2022-10-11T16:46:09.524Z,13.01
2022-10-11T16:48:37.883Z,12.88
2022-10-11T16:51:07.630Z,12.75
2022-10-11T16:53:36.217Z,12.65
2022-10-11T16:56:06.897Z,12.49
2022-10-11T16:58:37.609Z,12.42
2022-10-11T17:01:12.499Z,12.30
2022-10-11T17:03:40.783Z,12.18
2022-10-11T17:06:09.530Z,12.01
2022-10-11T17:08:40.289Z,11.89
2022-10-11T17:11:08.607Z,11.76
2022-10-11T17:13:40.742Z,11.64
2022-10-11T17:16:09.605Z,11.57
2022-10-11T17:18:38.345Z,11.49
2022-10-11T17:21:09.237Z,11.37
2022-10-11T17:23:37.571Z,11.27
2022-10-11T17:26:11.169Z,11.12
2022-10-11T17:28:41.400Z,10.99
2022-10-11T17:31:10.324Z,10.89
2022-10-11T17:33:40.412Z,10.81
2022-10-11T17:36:17.759Z,10.70
2022-10-11T17:38:46.065Z,10.66
2022-10-11T17:41:14.564Z,10.56
2022-10-11T17:43:44.703Z,10.48
2022-10-11T17:46:14.419Z,10.41
2022-10-11T17:48:44.614Z,10.37
2022-10-11T17:51:16.136Z,10.28
2022-10-11T17:53:45.206Z,10.23
2022-10-11T17:56:17.970Z,10.18
2022-10-11T17:58:48.923Z,10.10
2022-10-11T18:01:19.468Z,10.05
2022-10-11T18:03:52.696Z,10.03
2022-10-11T18:06:20.911Z,9.96
2022-10-11T18:08:49.287Z,9.93
2022-10-11T18:11:19.363Z,9.83
2022-10-11T18:13:51.193Z,9.81
2022-10-11T18:16:22.176Z,9.74
2022-10-11T18:18:51.161Z,9.71
2022-10-11T18:21:19.717Z,9.67
2022-10-11T18:23:47.982Z,9.67
2022-10-11T18:26:18.315Z,9.62
2022-10-11T18:28:47.886Z,9.59
2022-10-11T18:31:19.722Z,9.59
2022-10-11T18:33:50.778Z,9.51
2022-10-11T18:36:21.395Z,9.46
2022-10-11T18:38:53.240Z,9.44
2022-10-11T18:41:23.463Z,9.34
2022-10-11T18:43:53.251Z,9.32
2022-10-11T18:46:23.648Z,9.31
2022-10-11T18:48:53.792Z,9.26
2022-10-11T18:51:23.897Z,9.22
2022-10-11T18:53:52.301Z,9.18
2022-10-11T18:56:22.092Z,9.14
2022-10-11T18:58:51.913Z,9.05
2022-10-11T19:01:23.284Z,9.05
2022-10-11T19:03:53.722Z,9.01
2022-10-11T19:06:23.868Z,9.00
2022-10-11T19:08:54.696Z,8.98
2022-10-11T19:11:25.427Z,8.95
2022-10-11T19:13:57.801Z,8.90
2022-10-11T19:16:29.532Z,8.90
2022-10-11T19:18:58.860Z,8.90
2022-10-11T19:21:27.663Z,8.89
2022-10-11T19:23:57.219Z,8.91
2022-10-11T19:26:28.809Z,8.83
2022-10-11T19:28:59.775Z,8.79
2022-10-11T19:31:30.354Z,8.77
2022-10-11T19:33:59.333Z,8.75
2022-10-11T19:36:30.430Z,8.70
2022-10-11T19:39:00.927Z,8.65
2022-10-11T19:41:30.069Z,8.66
2022-10-11T19:43:59.105Z,8.60
2022-10-11T19:49:20.474Z,8.49
2022-10-11T19:51:48.724Z,8.47
2022-10-11T19:54:17.609Z,8.46
2022-10-11T19:56:46.142Z,8.45
2022-10-11T19:59:14.968Z,8.34
2022-10-11T20:01:48.108Z,8.30
2022-10-11T20:04:47.141Z,8.28
2022-10-11T20:07:08.220Z,8.33
2022-10-11T20:09:36.672Z,8.32
2022-10-11T20:12:04.973Z,8.26
2022-10-11T20:14:33.115Z,8.23
2022-10-11T20:17:02.752Z,8.20
2022-10-11T20:19:31.233Z,8.16
2022-10-11T20:22:01.050Z,8.09
2022-10-11T20:24:33.491Z,8.12
2022-10-11T20:27:04.529Z,8.14
2022-10-11T20:29:33.030Z,8.15
2022-10-11T20:32:02.534Z,8.08
2022-10-11T20:34:30.805Z,8.07
2022-10-11T20:36:59.375Z,8.00
2022-10-11T20:39:27.867Z,8.01
2022-10-11T20:41:56.001Z,8.01
2022-10-11T20:44:24.312Z,7.98
2022-10-11T20:46:52.519Z,7.94
2022-10-11T20:49:22.583Z,7.96
2022-10-11T20:51:51.259Z,7.98
2022-10-11T20:54:19.538Z,7.96
2022-10-11T20:56:47.795Z,7.92
2022-10-11T20:59:16.092Z,7.89
2022-10-11T21:01:44.451Z,7.85
2022-10-11T21:04:18.895Z,7.85
2022-10-11T21:06:49.132Z,7.82
2022-10-11T21:09:17.574Z,7.76
2022-10-11T21:11:45.778Z,7.78
2022-10-11T21:14:14.035Z,7.73
2022-10-11T21:16:42.407Z,7.69
2022-10-11T21:19:15.157Z,7.65
2022-10-11T21:21:45.024Z,7.60
2022-10-11T21:24:16.005Z,7.61
2022-10-11T21:26:44.213Z,7.62
2022-10-11T21:29:12.414Z,7.58
2022-10-11T21:31:41.622Z,7.57
2022-10-11T21:34:09.915Z,7.56
2022-10-11T21:36:38.220Z,7.49
2022-10-11T21:39:06.744Z,7.47
2022-10-11T21:41:36.320Z,7.45
2022-10-11T21:44:05.439Z,7.42
2022-10-11T21:49:22.239Z,7.37
2022-10-11T21:51:50.546Z,7.34
2022-10-11T21:54:18.826Z,7.30
2022-10-11T21:56:48.665Z,7.30
2022-10-11T21:59:17.068Z,7.30
2022-10-11T22:01:45.595Z,7.25
2022-10-11T22:04:14.124Z,7.22
2022-10-11T22:06:42.353Z,7.19
2022-10-11T22:09:10.840Z,7.18
2022-10-11T22:11:39.163Z,7.13
2022-10-11T22:14:08.753Z,7.16
2022-10-11T22:16:37.072Z,7.14
2022-10-11T22:19:05.379Z,7.10
2022-10-11T22:21:33.557Z,7.04
2022-10-11T22:24:01.685Z,6.97
2022-10-11T22:26:31.843Z,6.95
2022-10-11T22:29:01.379Z,6.94
2022-10-11T22:31:31.197Z,6.93
2022-10-11T22:34:01.544Z,6.93
2022-10-11T22:36:31.001Z,6.96
2022-10-11T22:38:59.237Z,6.99
2022-10-11T22:41:28.655Z,6.95
2022-10-11T22:43:56.871Z,6.93
2022-10-11T22:46:25.091Z,6.85
2022-10-11T22:48:54.758Z,6.84
2022-10-11T22:51:22.989Z,6.83
2022-10-11T22:53:51.216Z,6.84
2022-10-11T22:56:19.470Z,6.78
2022-10-11T22:58:47.747Z,6.76
2022-10-11T23:01:17.133Z,6.73
2022-10-11T23:03:49.503Z,6.70
2022-10-11T23:06:19.112Z,6.69
2022-10-11T23:08:47.528Z,6.69
2022-10-11T23:11:15.763Z,6.66
2022-10-11T23:13:43.941Z,6.66
2022-10-11T23:16:15.340Z,6.61
2022-10-11T23:18:43.635Z,6.55
2022-10-11T23:21:13.187Z,6.60
2022-10-11T23:23:42.754Z,6.55
2022-10-11T23:26:13.186Z,6.52
2022-10-11T23:28:41.671Z,6.49
2022-10-11T23:31:11.275Z,6.60
2022-10-11T23:33:40.061Z,6.65
2022-10-11T23:36:15.828Z,6.55
2022-10-11T23:38:45.954Z,6.49
2022-10-11T23:41:14.405Z,6.41
2022-10-11T23:43:42.760Z,6.38
2022-10-11T23:46:11.059Z,6.42
2022-10-11T23:48:39.254Z,6.35
2022-10-11T23:51:07.999Z,6.37
2022-10-11T23:53:36.949Z,6.38
2022-10-11T23:56:07.421Z,6.33
2022-10-11T23:58:35.858Z,6.35
